sensor_id;sensor_type;location;lat;lon;timestamp;temperature;humidity
19307;DHT22;9788;48.194;16.318;2024-01-15T00:01:44;-2.10;99.90
19307;DHT22;9788;48.194;16.318;2024-01-15T00:04:12;-2.00;99.90
19307;DHT22;9788;48.194;16.318;2024-01-15T00:06:43;-2.00;99.90
19307;DHT22;9788;48.194;16.318;2024-01-15T00:09:11;-2.00;99.90
19307;DHT22;9788;48.194;16.318;2024-01-15T00:11:39;-2.00;99.90
19307;DHT22;9788;48.194;16.318;2024-01-15T00:14:07;-2.00;99.90
19307;DHT22;9788;48.194;16.318;2024-01-15T00:16:40;-2.00;99.90
19307;DHT22;9788;48.194;16.318;2024-01-15T00:19:08;-1.90;99.90
19307;DHT22;9788;48.194;16.318;2024-01-15T00:21:37;-1.90;99.90
19307;DHT22;9788;48.194;16.318;2024-01-15T00:24:07;-2.00;99.90
19307;DHT22;9788;48.194;16.318;2024-01-15T00:26:36;-2.00;99.90
19307;DHT22;9788;48.194;16.318;2024-01-15T00:29:06;-2.00;99.90
19307;DHT22;9788;48.194;16.318;2024-01-15T00:31:34;-2.00;99.90
19307;DHT22;9788;48.194;16.318;2024-01-15T00:34:03;-1.90;99.90
19307;DHT22;9788;48.194;16.318;2024-01-15T00:36:31;-1.80;99.90
19307;DHT22;9788;48.194;16.318;2024-01-15T00:39:01;-1.70;99.90
19307;DHT22;9788;48.194;16.318;2024-01-15T00:41:34;-1.70;99.90
19307;DHT22;9788;48.194;16.318;2024-01-15T00:44:02;-1.60;99.90
19307;DHT22;9788;48.194;16.318;2024-01-15T00:46:30;-1.60;99.90
19307;DHT22;9788;48.194;16.318;2024-01-15T00:48:59;-1.40;99.90
19307;DHT22;9788;48.194;16.318;2024-01-15T00:51:27;-1.20;99.90
19307;DHT22;9788;48.194;16.318;2024-01-15T00:53:55;-1.00;99.90
19307;DHT22;9788;48.194;16.318;2024-01-15T00:56:23;-0.90;99.90
19307;DHT22;9788;48.194;16.318;2024-01-15T00:58:53;-0.80;99.90
19307;DHT22;9788;48.194;16.318;2024-01-15T01:01:21;-0.90;99.90
19307;DHT22;9788;48.194;16.318;2024-01-15T01:03:49;-0.90;99.90
19307;DHT22;9788;48.194;16.318;2024-01-15T01:06:18;-0.80;99.90
19307;DHT22;9788;48.194;16.318;2024-01-15T01:08:46;-0.80;99.90
19307;DHT22;9788;48.194;16.318;2024-01-15T01:11:16;-0.80;99.90
19307;DHT22;9788;48.194;16.318;2024-01-15T01:13:44;-0.80;99.90
19307;DHT22;9788;48.194;16.318;2024-01-15T01:16:15;-0.90;99.90
19307;DHT22;9788;48.194;16.318;2024-01-15T01:18:44;-1.00;99.90
19307;DHT22;9788;48.194;16.318;2024-01-15T01:21:13;-1.10;99.90
19307;DHT22;9788;48.194;16.318;2024-01-15T01:23:41;-1.20;99.90
19307;DHT22;9788;48.194;16.318;2024-01-15T01:26:10;-1.30;99.90
19307;DHT22;9788;48.194;16.318;2024-01-15T01:28:38;-1.30;99.90
19307;DHT22;9788;48.194;16.318;2024-01-15T01:31:06;-1.30;99.90
19307;DHT22;9788;48.194;16.318;2024-01-15T01:33:38;-1.40;99.90
19307;DHT22;9788;48.194;16.318;2024-01-15T01:36:09;-1.40;99.90
19307;DHT22;9788;48.194;16.318;2024-01-15T01:38:38;-1.30;99.90
19307;DHT22;9788;48.194;16.318;2024-01-15T01:41:06;-1.30;99.90
19307;DHT22;9788;48.194;16.318;2024-01-15T01:43:35;-1.20;99.90
19307;DHT22;9788;48.194;16.318;2024-01-15T01:46:05;-1.20;99.90
19307;DHT22;9788;48.194;16.318;2024-01-15T01:48:34;-1.10;99.90
19307;DHT22;9788;48.194;16.318;2024-01-15T01:51:05;-1.10;99.90
19307;DHT22;9788;48.194;16.318;2024-01-15T01:53:35;-1.10;99.90
19307;DHT22;9788;48.194;16.318;2024-01-15T01:56:05;-1.10;99.90
19307;DHT22;9788;48.194;16.318;2024-01-15T01:58:33;-1.10;99.90
19307;DHT22;9788;48.194;16.318;2024-01-15T02:01:02;-1.10;99.90
19307;DHT22;9788;48.194;16.318;2024-01-15T02:03:31;-1.10;99.90
19307;DHT22;9788;48.194;16.318;2024-01-15T02:05:59;-1.10;99.90
19307;DHT22;9788;48.194;16.318;2024-01-15T02:08:30;-1.10;99.90
19307;DHT22;9788;48.194;16.318;2024-01-15T02:10:58;-1.10;99.90
19307;DHT22;9788;48.194;16.318;2024-01-15T02:13:26;-1.10;99.90
19307;DHT22;9788;48.194;16.318;2024-01-15T02:15:55;-1.10;99.90
19307;DHT22;9788;48.194;16.318;2024-01-15T02:18:23;-1.10;99.90
19307;DHT22;9788;48.194;16.318;2024-01-15T02:20:52;-1.10;99.90
19307;DHT22;9788;48.194;16.318;2024-01-15T02:23:21;-1.00;99.90
19307;DHT22;9788;48.194;16.318;2024-01-15T02:25:49;-1.00;99.90
19307;DHT22;9788;48.194;16.318;2024-01-15T02:28:18;-0.90;99.90
19307;DHT22;9788;48.194;16.318;2024-01-15T02:30:46;-0.90;99.90
19307;DHT22;9788;48.194;16.318;2024-01-15T02:33:14;-0.80;99.90
19307;DHT22;9788;48.194;16.318;2024-01-15T02:35:43;-0.70;99.90
19307;DHT22;9788;48.194;16.318;2024-01-15T02:38:13;-0.60;99.90
19307;DHT22;9788;48.194;16.318;2024-01-15T02:40:45;-0.50;99.90
19307;DHT22;9788;48.194;16.318;2024-01-15T02:43:13;-0.50;99.90
19307;DHT22;9788;48.194;16.318;2024-01-15T02:45:42;-0.60;99.90
19307;DHT22;9788;48.194;16.318;2024-01-15T02:48:10;-0.60;99.90
19307;DHT22;9788;48.194;16.318;2024-01-15T02:50:38;-0.70;99.90
19307;DHT22;9788;48.194;16.318;2024-01-15T02:53:07;-0.70;99.90
19307;DHT22;9788;48.194;16.318;2024-01-15T02:55:35;-0.60;99.90
19307;DHT22;9788;48.194;16.318;2024-01-15T02:58:05;-0.50;99.90
19307;DHT22;9788;48.194;16.318;2024-01-15T03:00:33;-0.50;99.90
19307;DHT22;9788;48.194;16.318;2024-01-15T03:03:01;-0.50;99.90
19307;DHT22;9788;48.194;16.318;2024-01-15T03:05:30;-0.50;99.90
19307;DHT22;9788;48.194;16.318;2024-01-15T03:07:58;-0.50;99.90
19307;DHT22;9788;48.194;16.318;2024-01-15T03:10:26;-0.40;99.90
19307;DHT22;9788;48.194;16.318;2024-01-15T03:12:56;-0.30;99.90
19307;DHT22;9788;48.194;16.318;2024-01-15T03:15:26;-0.20;99.90
19307;DHT22;9788;48.194;16.318;2024-01-15T03:17:54;-0.20;99.90
19307;DHT22;9788;48.194;16.318;2024-01-15T03:20:22;-0.10;99.90
19307;DHT22;9788;48.194;16.318;2024-01-15T03:22:51;0.00;99.90
19307;DHT22;9788;48.194;16.318;2024-01-15T03:25:19;0.00;99.90
19307;DHT22;9788;48.194;16.318;2024-01-15T03:27:47;0.00;99.90
19307;DHT22;9788;48.194;16.318;2024-01-15T03:30:16;0.10;99.90
19307;DHT22;9788;48.194;16.318;2024-01-15T03:32:46;0.10;99.90
19307;DHT22;9788;48.194;16.318;2024-01-15T03:35:17;0.10;99.90
19307;DHT22;9788;48.194;16.318;2024-01-15T03:37:45;0.20;99.90
19307;DHT22;9788;48.194;16.318;2024-01-15T03:40:13;0.20;99.90
19307;DHT22;9788;48.194;16.318;2024-01-15T03:42:46;0.10;99.90
19307;DHT22;9788;48.194;16.318;2024-01-15T03:45:15;0.10;99.90
19307;DHT22;9788;48.194;16.318;2024-01-15T03:47:43;0.20;99.90
19307;DHT22;9788;48.194;16.318;2024-01-15T03:50:12;0.10;99.90
19307;DHT22;9788;48.194;16.318;2024-01-15T03:52:41;0.00;99.90
19307;DHT22;9788;48.194;16.318;2024-01-15T03:55:11;-0.10;99.90
19307;DHT22;9788;48.194;16.318;2024-01-15T03:57:40;-0.10;99.90
19307;DHT22;9788;48.194;16.318;2024-01-15T04:00:09;-0.10;99.90
19307;DHT22;9788;48.194;16.318;2024-01-15T04:02:37;-0.10;99.90
19307;DHT22;9788;48.194;16.318;2024-01-15T04:05:06;-0.20;99.90
19307;DHT22;9788;48.194;16.318;2024-01-15T04:07:35;-0.30;99.90
19307;DHT22;9788;48.194;16.318;2024-01-15T04:10:04;-0.40;99.90
19307;DHT22;9788;48.194;16.318;2024-01-15T04:12:32;-0.20;99.90
19307;DHT22;9788;48.194;16.318;2024-01-15T04:15:01;-0.10;99.90
19307;DHT22;9788;48.194;16.318;2024-01-15T04:17:29;-0.10;99.90
19307;DHT22;9788;48.194;16.318;2024-01-15T04:19:57;0.10;99.90
19307;DHT22;9788;48.194;16.318;2024-01-15T04:22:26;0.20;99.90
19307;DHT22;9788;48.194;16.318;2024-01-15T04:24:56;0.20;99.90
19307;DHT22;9788;48.194;16.318;2024-01-15T04:27:24;0.30;99.90
19307;DHT22;9788;48.194;16.318;2024-01-15T04:29:52;0.40;99.90
19307;DHT22;9788;48.194;16.318;2024-01-15T04:32:21;0.30;99.90
19307;DHT22;9788;48.194;16.318;2024-01-15T04:34:49;0.40;99.90
19307;DHT22;9788;48.194;16.318;2024-01-15T04:37:17;0.30;99.90
19307;DHT22;9788;48.194;16.318;2024-01-15T04:39:46;0.20;99.90
19307;DHT22;9788;48.194;16.318;2024-01-15T04:42:16;0.20;99.90
19307;DHT22;9788;48.194;16.318;2024-01-15T04:44:44;0.20;99.90
19307;DHT22;9788;48.194;16.318;2024-01-15T04:47:12;0.20;99.90
19307;DHT22;9788;48.194;16.318;2024-01-15T04:49:40;0.30;99.90
19307;DHT22;9788;48.194;16.318;2024-01-15T04:52:09;0.10;99.90
19307;DHT22;9788;48.194;16.318;2024-01-15T04:54:38;0.10;99.90
19307;DHT22;9788;48.194;16.318;2024-01-15T04:57:06;0.00;99.90
19307;DHT22;9788;48.194;16.318;2024-01-15T04:59:36;0.00;99.90
19307;DHT22;9788;48.194;16.318;2024-01-15T05:02:04;0.00;99.90
19307;DHT22;9788;48.194;16.318;2024-01-15T05:04:32;-0.10;99.90
19307;DHT22;9788;48.194;16.318;2024-01-15T05:07:01;-0.20;99.90
19307;DHT22;9788;48.194;16.318;2024-01-15T05:09:29;-0.20;99.90
19307;DHT22;9788;48.194;16.318;2024-01-15T05:11:59;-0.30;99.90
19307;DHT22;9788;48.194;16.318;2024-01-15T05:14:27;-0.30;99.90
19307;DHT22;9788;48.194;16.318;2024-01-15T05:16:56;-0.30;99.90
19307;DHT22;9788;48.194;16.318;2024-01-15T05:19:25;-0.30;99.90
19307;DHT22;9788;48.194;16.318;2024-01-15T05:21:53;-0.30;99.90
19307;DHT22;9788;48.194;16.318;2024-01-15T05:24:21;-0.30;99.90
19307;DHT22;9788;48.194;16.318;2024-01-15T05:26:50;-0.30;99.90
19307;DHT22;9788;48.194;16.318;2024-01-15T05:29:18;-0.40;99.90
19307;DHT22;9788;48.194;16.318;2024-01-15T05:31:46;-0.40;99.90
19307;DHT22;9788;48.194;16.318;2024-01-15T05:34:16;-0.40;99.90
19307;DHT22;9788;48.194;16.318;2024-01-15T05:36:44;-0.40;99.90
19307;DHT22;9788;48.194;16.318;2024-01-15T05:39:15;-0.40;99.90
19307;DHT22;9788;48.194;16.318;2024-01-15T05:41:46;-0.40;99.90
19307;DHT22;9788;48.194;16.318;2024-01-15T05:44:14;-0.30;99.90
19307;DHT22;9788;48.194;16.318;2024-01-15T05:46:42;-0.30;99.90
19307;DHT22;9788;48.194;16.318;2024-01-15T05:49:11;-0.30;99.90
19307;DHT22;9788;48.194;16.318;2024-01-15T05:51:41;-0.40;99.90
19307;DHT22;9788;48.194;16.318;2024-01-15T05:54:10;-0.50;99.90
19307;DHT22;9788;48.194;16.318;2024-01-15T05:56:39;-0.50;99.90
19307;DHT22;9788;48.194;16.318;2024-01-15T05:59:07;-0.50;99.90
19307;DHT22;9788;48.194;16.318;2024-01-15T06:01:40;-0.50;99.90
19307;DHT22;9788;48.194;16.318;2024-01-15T06:04:09;-0.50;99.90
19307;DHT22;9788;48.194;16.318;2024-01-15T06:06:37;-0.40;99.90
19307;DHT22;9788;48.194;16.318;2024-01-15T06:09:07;-0.30;99.90
19307;DHT22;9788;48.194;16.318;2024-01-15T06:11:35;-0.20;99.90
19307;DHT22;9788;48.194;16.318;2024-01-15T06:14:04;-0.20;99.90
19307;DHT22;9788;48.194;16.318;2024-01-15T06:16:35;-0.20;99.90
19307;DHT22;9788;48.194;16.318;2024-01-15T06:19:04;-0.30;99.90
19307;DHT22;9788;48.194;16.318;2024-01-15T06:21:32;-0.20;99.90
19307;DHT22;9788;48.194;16.318;2024-01-15T06:24:00;-0.20;99.90
19307;DHT22;9788;48.194;16.318;2024-01-15T06:26:32;-0.30;99.90
19307;DHT22;9788;48.194;16.318;2024-01-15T06:29:01;-0.40;99.90
19307;DHT22;9788;48.194;16.318;2024-01-15T06:31:29;-0.40;99.90
19307;DHT22;9788;48.194;16.318;2024-01-15T06:33:58;-0.40;99.90
19307;DHT22;9788;48.194;16.318;2024-01-15T06:36:27;-0.40;99.90
19307;DHT22;9788;48.194;16.318;2024-01-15T06:38:55;-0.40;99.90
19307;DHT22;9788;48.194;16.318;2024-01-15T06:41:25;-0.50;99.90
19307;DHT22;9788;48.194;16.318;2024-01-15T06:43:55;-0.50;99.90
19307;DHT22;9788;48.194;16.318;2024-01-15T06:46:24;-0.50;99.90
19307;DHT22;9788;48.194;16.318;2024-01-15T06:48:53;-0.50;99.90
19307;DHT22;9788;48.194;16.318;2024-01-15T06:51:21;-0.40;99.90
19307;DHT22;9788;48.194;16.318;2024-01-15T06:53:49;-0.50;99.90
19307;DHT22;9788;48.194;16.318;2024-01-15T06:56:18;-0.50;99.90
19307;DHT22;9788;48.194;16.318;2024-01-15T06:58:46;-0.50;99.90
19307;DHT22;9788;48.194;16.318;2024-01-15T07:01:16;-0.40;99.90
19307;DHT22;9788;48.194;16.318;2024-01-15T07:03:45;-0.50;99.90
19307;DHT22;9788;48.194;16.318;2024-01-15T07:06:16;-0.50;99.90
19307;DHT22;9788;48.194;16.318;2024-01-15T07:08:45;-0.40;99.90
19307;DHT22;9788;48.194;16.318;2024-01-15T07:11:13;-0.40;99.90
19307;DHT22;9788;48.194;16.318;2024-01-15T07:13:44;-0.40;99.90
19307;DHT22;9788;48.194;16.318;2024-01-15T07:16:12;-0.30;99.90
19307;DHT22;9788;48.194;16.318;2024-01-15T07:19:02;-0.30;99.90
19307;DHT22;9788;48.194;16.318;2024-01-15T07:21:31;-0.30;99.90
19307;DHT22;9788;48.194;16.318;2024-01-15T07:23:59;-0.20;99.90
19307;DHT22;9788;48.194;16.318;2024-01-15T07:26:29;-0.10;99.90
19307;DHT22;9788;48.194;16.318;2024-01-15T07:29:03;0.00;99.90
19307;DHT22;9788;48.194;16.318;2024-01-15T07:31:38;0.10;99.90
19307;DHT22;9788;48.194;16.318;2024-01-15T07:34:15;0.10;99.90
19307;DHT22;9788;48.194;16.318;2024-01-15T07:36:44;0.30;99.90
19307;DHT22;9788;48.194;16.318;2024-01-15T07:39:13;0.40;99.90
19307;DHT22;9788;48.194;16.318;2024-01-15T07:41:42;0.40;99.90
19307;DHT22;9788;48.194;16.318;2024-01-15T07:44:10;0.40;99.90
19307;DHT22;9788;48.194;16.318;2024-01-15T07:46:39;0.40;99.90
19307;DHT22;9788;48.194;16.318;2024-01-15T07:49:08;0.40;99.90
19307;DHT22;9788;48.194;16.318;2024-01-15T07:51:43;0.30;99.90
19307;DHT22;9788;48.194;16.318;2024-01-15T07:54:15;0.40;99.90
19307;DHT22;9788;48.194;16.318;2024-01-15T07:56:59;0.50;99.90
19307;DHT22;9788;48.194;16.318;2024-01-15T07:59:27;0.60;99.90
19307;DHT22;9788;48.194;16.318;2024-01-15T08:01:59;0.80;99.90
19307;DHT22;9788;48.194;16.318;2024-01-15T08:04:27;0.90;99.90
19307;DHT22;9788;48.194;16.318;2024-01-15T08:07:05;1.00;99.90
19307;DHT22;9788;48.194;16.318;2024-01-15T08:09:34;1.10;99.90
19307;DHT22;9788;48.194;16.318;2024-01-15T08:12:02;1.10;99.90
19307;DHT22;9788;48.194;16.318;2024-01-15T08:14:32;1.10;99.90
19307;DHT22;9788;48.194;16.318;2024-01-15T08:17:01;1.10;99.90
19307;DHT22;9788;48.194;16.318;2024-01-15T08:19:29;1.10;99.90
19307;DHT22;9788;48.194;16.318;2024-01-15T08:21:58;1.10;99.90
19307;DHT22;9788;48.194;16.318;2024-01-15T08:24:28;1.00;99.90
19307;DHT22;9788;48.194;16.318;2024-01-15T08:26:58;0.90;99.90
19307;DHT22;9788;48.194;16.318;2024-01-15T08:29:27;1.00;99.90
19307;DHT22;9788;48.194;16.318;2024-01-15T08:31:55;0.90;99.90
19307;DHT22;9788;48.194;16.318;2024-01-15T08:34:24;1.00;99.90
19307;DHT22;9788;48.194;16.318;2024-01-15T08:36:55;1.10;99.90
19307;DHT22;9788;48.194;16.318;2024-01-15T08:39:24;1.20;99.90
19307;DHT22;9788;48.194;16.318;2024-01-15T08:41:53;1.30;99.90
19307;DHT22;9788;48.194;16.318;2024-01-15T08:44:21;1.30;99.90
19307;DHT22;9788;48.194;16.318;2024-01-15T08:46:50;1.30;99.90
19307;DHT22;9788;48.194;16.318;2024-01-15T08:49:18;1.30;99.90
19307;DHT22;9788;48.194;16.318;2024-01-15T08:51:46;1.30;99.90
19307;DHT22;9788;48.194;16.318;2024-01-15T08:54:15;1.40;99.90
19307;DHT22;9788;48.194;16.318;2024-01-15T08:56:45;1.50;99.90
19307;DHT22;9788;48.194;16.318;2024-01-15T08:59:15;1.70;99.90
19307;DHT22;9788;48.194;16.318;2024-01-15T09:01:43;1.80;99.90
19307;DHT22;9788;48.194;16.318;2024-01-15T09:04:12;1.80;99.90
19307;DHT22;9788;48.194;16.318;2024-01-15T09:06:44;1.80;99.90
19307;DHT22;9788;48.194;16.318;2024-01-15T09:09:15;1.90;99.90
19307;DHT22;9788;48.194;16.318;2024-01-15T09:11:45;1.90;99.90
19307;DHT22;9788;48.194;16.318;2024-01-15T09:14:15;1.90;99.90
19307;DHT22;9788;48.194;16.318;2024-01-15T09:16:52;1.90;99.90
19307;DHT22;9788;48.194;16.318;2024-01-15T09:19:20;1.90;99.90
19307;DHT22;9788;48.194;16.318;2024-01-15T09:21:50;1.80;99.90
19307;DHT22;9788;48.194;16.318;2024-01-15T09:24:18;1.70;99.90
19307;DHT22;9788;48.194;16.318;2024-01-15T09:26:54;1.60;99.90
19307;DHT22;9788;48.194;16.318;2024-01-15T09:29:24;1.60;99.90
19307;DHT22;9788;48.194;16.318;2024-01-15T09:31:53;1.50;99.90
19307;DHT22;9788;48.194;16.318;2024-01-15T09:34:22;1.40;99.90
19307;DHT22;9788;48.194;16.318;2024-01-15T09:36:51;1.40;99.90
19307;DHT22;9788;48.194;16.318;2024-01-15T09:39:21;1.50;99.90
19307;DHT22;9788;48.194;16.318;2024-01-15T09:41:50;1.60;99.90
19307;DHT22;9788;48.194;16.318;2024-01-15T09:44:19;1.80;99.90
19307;DHT22;9788;48.194;16.318;2024-01-15T09:46:48;2.10;99.90
19307;DHT22;9788;48.194;16.318;2024-01-15T09:49:17;2.30;99.90
19307;DHT22;9788;48.194;16.318;2024-01-15T09:51:48;2.60;99.90
19307;DHT22;9788;48.194;16.318;2024-01-15T09:54:32;2.90;99.90
19307;DHT22;9788;48.194;16.318;2024-01-15T09:57:01;3.30;99.90
19307;DHT22;9788;48.194;16.318;2024-01-15T09:59:34;3.60;99.90
19307;DHT22;9788;48.194;16.318;2024-01-15T10:02:06;3.60;99.90
19307;DHT22;9788;48.194;16.318;2024-01-15T10:04:36;3.70;99.90
19307;DHT22;9788;48.194;16.318;2024-01-15T10:07:07;3.80;99.90
19307;DHT22;9788;48.194;16.318;2024-01-15T10:09:36;4.20;99.90
19307;DHT22;9788;48.194;16.318;2024-01-15T10:12:10;4.40;99.90
19307;DHT22;9788;48.194;16.318;2024-01-15T10:14:38;5.20;99.90
19307;DHT22;9788;48.194;16.318;2024-01-15T10:17:17;6.30;99.90
19307;DHT22;9788;48.194;16.318;2024-01-15T10:19:46;6.70;99.40
19307;DHT22;9788;48.194;16.318;2024-01-15T10:22:16;7.30;97.60
19307;DHT22;9788;48.194;16.318;2024-01-15T10:24:46;7.80;96.40
19307;DHT22;9788;48.194;16.318;2024-01-15T10:27:16;7.20;96.10
19307;DHT22;9788;48.194;16.318;2024-01-15T10:29:44;6.80;96.60
19307;DHT22;9788;48.194;16.318;2024-01-15T10:32:14;6.20;96.70
19307;DHT22;9788;48.194;16.318;2024-01-15T10:34:44;5.60;97.50
19307;DHT22;9788;48.194;16.318;2024-01-15T10:37:13;5.40;98.40
19307;DHT22;9788;48.194;16.318;2024-01-15T10:39:43;5.50;98.10
19307;DHT22;9788;48.194;16.318;2024-01-15T10:42:11;5.60;98.10
19307;DHT22;9788;48.194;16.318;2024-01-15T10:44:41;5.30;98.50
19307;DHT22;9788;48.194;16.318;2024-01-15T10:47:11;5.30;99.00
19307;DHT22;9788;48.194;16.318;2024-01-15T10:49:40;5.30;98.50
19307;DHT22;9788;48.194;16.318;2024-01-15T10:52:15;5.30;98.80
19307;DHT22;9788;48.194;16.318;2024-01-15T10:54:45;5.10;98.40
19307;DHT22;9788;48.194;16.318;2024-01-15T10:57:15;4.90;98.80
19307;DHT22;9788;48.194;16.318;2024-01-15T10:59:44;4.90;99.10
19307;DHT22;9788;48.194;16.318;2024-01-15T11:02:13;5.20;98.90
19307;DHT22;9788;48.194;16.318;2024-01-15T11:04:44;5.50;98.40
19307;DHT22;9788;48.194;16.318;2024-01-15T11:07:14;6.00;98.00
19307;DHT22;9788;48.194;16.318;2024-01-15T11:09:45;6.20;97.40
19307;DHT22;9788;48.194;16.318;2024-01-15T11:12:16;6.50;96.90
19307;DHT22;9788;48.194;16.318;2024-01-15T11:14:46;6.00;97.10
19307;DHT22;9788;48.194;16.318;2024-01-15T11:17:17;6.00;97.60
19307;DHT22;9788;48.194;16.318;2024-01-15T11:19:47;6.00;97.60
19307;DHT22;9788;48.194;16.318;2024-01-15T11:25:34;5.60;97.60
19307;DHT22;9788;48.194;16.318;2024-01-15T11:28:06;5.40;98.10
19307;DHT22;9788;48.194;16.318;2024-01-15T11:30:35;5.40;98.20
19307;DHT22;9788;48.194;16.318;2024-01-15T11:33:04;5.30;98.30
19307;DHT22;9788;48.194;16.318;2024-01-15T11:35:50;5.30;98.70
19307;DHT22;9788;48.194;16.318;2024-01-15T11:38:29;5.30;98.80
19307;DHT22;9788;48.194;16.318;2024-01-15T11:40:59;5.30;98.70
19307;DHT22;9788;48.194;16.318;2024-01-15T11:43:28;5.20;98.20
19307;DHT22;9788;48.194;16.318;2024-01-15T11:46:02;5.30;98.60
19307;DHT22;9788;48.194;16.318;2024-01-15T11:48:39;5.30;98.80
19307;DHT22;9788;48.194;16.318;2024-01-15T11:51:11;5.40;99.20
19307;DHT22;9788;48.194;16.318;2024-01-15T11:53:44;5.50;99.20
19307;DHT22;9788;48.194;16.318;2024-01-15T11:56:15;5.50;99.20
19307;DHT22;9788;48.194;16.318;2024-01-15T11:58:45;5.40;99.30
19307;DHT22;9788;48.194;16.318;2024-01-15T12:01:18;5.30;99.50
19307;DHT22;9788;48.194;16.318;2024-01-15T12:03:48;5.30;99.60
19307;DHT22;9788;48.194;16.318;2024-01-15T12:06:16;5.50;99.40
19307;DHT22;9788;48.194;16.318;2024-01-15T12:08:44;5.90;99.00
19307;DHT22;9788;48.194;16.318;2024-01-15T12:11:16;6.10;98.50
19307;DHT22;9788;48.194;16.318;2024-01-15T12:13:46;5.80;98.60
19307;DHT22;9788;48.194;16.318;2024-01-15T12:16:15;5.00;99.40
19307;DHT22;9788;48.194;16.318;2024-01-15T12:18:46;4.90;99.90
19307;DHT22;9788;48.194;16.318;2024-01-15T12:21:15;5.10;99.90
19307;DHT22;9788;48.194;16.318;2024-01-15T12:23:46;5.10;99.90
19307;DHT22;9788;48.194;16.318;2024-01-15T12:26:18;5.00;99.90
19307;DHT22;9788;48.194;16.318;2024-01-15T12:28:47;5.10;99.90
19307;DHT22;9788;48.194;16.318;2024-01-15T12:31:24;5.10;99.90
19307;DHT22;9788;48.194;16.318;2024-01-15T12:33:53;5.20;99.90
19307;DHT22;9788;48.194;16.318;2024-01-15T12:36:23;5.10;99.90
19307;DHT22;9788;48.194;16.318;2024-01-15T12:38:51;4.60;99.90
19307;DHT22;9788;48.194;16.318;2024-01-15T12:41:28;4.40;99.90
19307;DHT22;9788;48.194;16.318;2024-01-15T12:43:56;4.30;99.90
19307;DHT22;9788;48.194;16.318;2024-01-15T12:46:27;4.30;99.90
19307;DHT22;9788;48.194;16.318;2024-01-15T12:48:56;4.10;99.90
19307;DHT22;9788;48.194;16.318;2024-01-15T12:51:27;4.00;99.90
19307;DHT22;9788;48.194;16.318;2024-01-15T12:53:57;3.90;99.90
19307;DHT22;9788;48.194;16.318;2024-01-15T12:56:28;3.70;99.90
19307;DHT22;9788;48.194;16.318;2024-01-15T12:58:57;3.70;99.90
19307;DHT22;9788;48.194;16.318;2024-01-15T13:01:28;3.80;99.90
19307;DHT22;9788;48.194;16.318;2024-01-15T13:03:57;4.00;99.90
19307;DHT22;9788;48.194;16.318;2024-01-15T13:06:26;4.10;99.90
19307;DHT22;9788;48.194;16.318;2024-01-15T13:08:57;4.20;99.90
19307;DHT22;9788;48.194;16.318;2024-01-15T13:11:27;4.30;99.90
19307;DHT22;9788;48.194;16.318;2024-01-15T13:13:56;4.30;99.90
19307;DHT22;9788;48.194;16.318;2024-01-15T13:16:24;4.10;99.90
19307;DHT22;9788;48.194;16.318;2024-01-15T13:18:56;4.00;99.90
19307;DHT22;9788;48.194;16.318;2024-01-15T13:21:26;4.10;99.90
19307;DHT22;9788;48.194;16.318;2024-01-15T13:23:54;4.10;99.90
19307;DHT22;9788;48.194;16.318;2024-01-15T13:26:32;4.10;99.90
19307;DHT22;9788;48.194;16.318;2024-01-15T13:29:04;4.10;99.90
19307;DHT22;9788;48.194;16.318;2024-01-15T13:31:33;4.10;99.90
19307;DHT22;9788;48.194;16.318;2024-01-15T13:34:02;4.10;99.70
19307;DHT22;9788;48.194;16.318;2024-01-15T13:36:31;4.10;99.70
19307;DHT22;9788;48.194;16.318;2024-01-15T13:39:02;4.20;99.30
19307;DHT22;9788;48.194;16.318;2024-01-15T13:41:32;4.20;99.00
19307;DHT22;9788;48.194;16.318;2024-01-15T13:44:00;4.00;98.90
19307;DHT22;9788;48.194;16.318;2024-01-15T13:46:29;3.80;99.40
19307;DHT22;9788;48.194;16.318;2024-01-15T13:48:58;3.80;99.50
19307;DHT22;9788;48.194;16.318;2024-01-15T13:51:27;3.90;99.40
19307;DHT22;9788;48.194;16.318;2024-01-15T13:53:57;3.90;99.20
19307;DHT22;9788;48.194;16.318;2024-01-15T13:56:26;3.90;99.20
19307;DHT22;9788;48.194;16.318;2024-01-15T13:59:01;3.90;99.30
19307;DHT22;9788;48.194;16.318;2024-01-15T14:01:31;3.80;99.40
19307;DHT22;9788;48.194;16.318;2024-01-15T14:04:00;3.60;99.40
19307;DHT22;9788;48.194;16.318;2024-01-15T14:06:28;3.60;99.50
19307;DHT22;9788;48.194;16.318;2024-01-15T14:09:00;3.50;99.70
19307;DHT22;9788;48.194;16.318;2024-01-15T14:11:32;3.50;99.80
19307;DHT22;9788;48.194;16.318;2024-01-15T14:14:03;3.60;99.70
19307;DHT22;9788;48.194;16.318;2024-01-15T14:16:34;3.60;99.80
19307;DHT22;9788;48.194;16.318;2024-01-15T14:19:02;3.60;99.60
19307;DHT22;9788;48.194;16.318;2024-01-15T14:21:30;3.50;99.50
19307;DHT22;9788;48.194;16.318;2024-01-15T14:24:01;3.30;99.70
19307;DHT22;9788;48.194;16.318;2024-01-15T14:26:32;3.20;99.80
19307;DHT22;9788;48.194;16.318;2024-01-15T14:29:00;3.10;99.90
19307;DHT22;9788;48.194;16.318;2024-01-15T14:31:30;3.00;99.90
19307;DHT22;9788;48.194;16.318;2024-01-15T14:34:00;2.80;99.90
19307;DHT22;9788;48.194;16.318;2024-01-15T14:36:30;2.70;99.90
19307;DHT22;9788;48.194;16.318;2024-01-15T14:39:00;2.70;99.90
19307;DHT22;9788;48.194;16.318;2024-01-15T14:41:29;2.50;99.90
19307;DHT22;9788;48.194;16.318;2024-01-15T14:43:59;2.40;99.90
19307;DHT22;9788;48.194;16.318;2024-01-15T14:46:27;2.40;99.90
19307;DHT22;9788;48.194;16.318;2024-01-15T14:48:58;2.30;99.90
19307;DHT22;9788;48.194;16.318;2024-01-15T14:51:27;2.30;99.90
19307;DHT22;9788;48.194;16.318;2024-01-15T14:53:59;2.20;99.90
19307;DHT22;9788;48.194;16.318;2024-01-15T14:56:28;2.10;99.90
19307;DHT22;9788;48.194;16.318;2024-01-15T14:58:58;2.10;99.90
19307;DHT22;9788;48.194;16.318;2024-01-15T15:01:26;2.00;99.90
19307;DHT22;9788;48.194;16.318;2024-01-15T15:03:59;1.90;99.90
19307;DHT22;9788;48.194;16.318;2024-01-15T15:06:28;1.90;99.90
19307;DHT22;9788;48.194;16.318;2024-01-15T15:08:58;1.90;99.90
19307;DHT22;9788;48.194;16.318;2024-01-15T15:11:29;1.90;99.90
19307;DHT22;9788;48.194;16.318;2024-01-15T15:13:57;1.80;99.90
19307;DHT22;9788;48.194;16.318;2024-01-15T15:16:27;1.90;99.90
19307;DHT22;9788;48.194;16.318;2024-01-15T15:19:00;1.80;99.90
19307;DHT22;9788;48.194;16.318;2024-01-15T15:21:30;1.80;99.90
19307;DHT22;9788;48.194;16.318;2024-01-15T15:24:02;1.80;99.90
19307;DHT22;9788;48.194;16.318;2024-01-15T15:26:30;1.80;99.90
19307;DHT22;9788;48.194;16.318;2024-01-15T15:28:58;1.90;99.90
19307;DHT22;9788;48.194;16.318;2024-01-15T15:31:27;1.80;99.90
19307;DHT22;9788;48.194;16.318;2024-01-15T15:34:05;1.80;99.90
19307;DHT22;9788;48.194;16.318;2024-01-15T15:36:34;1.80;99.90
19307;DHT22;9788;48.194;16.318;2024-01-15T15:39:03;1.70;99.90
19307;DHT22;9788;48.194;16.318;2024-01-15T15:41:31;1.60;99.90
19307;DHT22;9788;48.194;16.318;2024-01-15T15:44:01;1.50;99.90
19307;DHT22;9788;48.194;16.318;2024-01-15T15:46:29;1.60;99.90
19307;DHT22;9788;48.194;16.318;2024-01-15T15:48:59;1.50;99.90
19307;DHT22;9788;48.194;16.318;2024-01-15T15:51:31;1.50;99.90
19307;DHT22;9788;48.194;16.318;2024-01-15T15:53:59;1.50;99.90
19307;DHT22;9788;48.194;16.318;2024-01-15T15:56:46;1.50;99.90
19307;DHT22;9788;48.194;16.318;2024-01-15T15:59:17;1.50;99.90